Time;durP1;ratioP1;P1;durP2;ratioP2;P2;SDS_P1;SDS_P2;PMS_P1;PMS_P2;Temp;Humidity;BMP_temperature;BMP_pressure;BME280_temperature;BME280_humidity;BME280_pressure;Samples;Min_cycle;Max_cycle;Signal;HPM_P1;HPM_P2
2024/01/28 00:01:45;;;;;;;13.50;7.27;;;2.70;99.90;;;;;;5030262;28;20052;-64
2024/01/28 00:04:11;;;;;;;17.00;6.97;;;2.70;99.90;;;;;;5014949;28;20044;-65
2024/01/28 00:06:36;;;;;;;19.97;8.20;;;2.70;99.90;;;;;;5030196;28;20033;-64
2024/01/28 00:09:02;;;;;;;19.30;8.03;;;2.70;99.90;;;;;;5031486;28;20025;-65
2024/01/28 00:11:28;;;;;;;26.48;7.60;;;2.70;99.90;;;;;;5034910;28;20025;-65
2024/01/28 00:13:53;;;;;;;15.90;7.13;;;2.60;99.90;;;;;;5036107;28;20095;-65
2024/01/28 00:16:20;;;;;;;16.80;6.60;;;2.50;99.90;;;;;;5030331;28;20103;-64
2024/01/28 00:18:46;;;;;;;17.80;5.93;;;2.30;99.90;;;;;;5030436;28;20045;-64
2024/01/28 00:21:11;;;;;;;17.38;6.70;;;2.00;99.90;;;;;;5030489;28;20064;-64
2024/01/28 00:23:37;;;;;;;15.43;6.95;;;1.90;99.90;;;;;;5030409;28;20526;-64
2024/01/28 00:26:03;;;;;;;12.73;7.57;;;1.80;99.90;;;;;;5029472;28;20045;-64
2024/01/28 00:28:29;;;;;;;28.13;9.07;;;1.70;99.90;;;;;;5030537;28;20641;-64
2024/01/28 00:30:55;;;;;;;13.18;7.90;;;1.70;99.90;;;;;;5011448;28;20060;-64
2024/01/28 00:33:21;;;;;;;21.13;9.63;;;1.70;99.90;;;;;;5029453;28;20029;-64
2024/01/28 00:35:47;;;;;;;19.33;9.30;;;1.60;99.90;;;;;;5028748;28;20041;-65
2024/01/28 00:38:12;;;;;;;18.77;9.57;;;1.60;99.90;;;;;;5029460;28;20771;-65
2024/01/28 00:40:38;;;;;;;12.27;8.10;;;1.60;99.90;;;;;;5029007;28;20048;-64
2024/01/28 00:43:04;;;;;;;21.27;9.37;;;1.60;99.90;;;;;;5029253;28;20124;-64
2024/01/28 00:45:30;;;;;;;28.58;10.70;;;1.60;99.90;;;;;;5027958;28;20045;-63
2024/01/28 00:47:56;;;;;;;26.05;10.13;;;1.50;99.90;;;;;;5028858;28;20117;-63
2024/01/28 00:50:22;;;;;;;26.07;8.37;;;1.50;99.90;;;;;;5024081;28;20121;-63
2024/01/28 00:52:48;;;;;;;40.60;10.33;;;1.50;99.90;;;;;;5028614;28;20567;-63
2024/01/28 00:55:14;;;;;;;42.90;11.52;;;1.50;99.90;;;;;;5009587;28;20077;-64
2024/01/28 00:57:40;;;;;;;16.10;9.88;;;1.50;99.90;;;;;;5027465;28;20627;-64
2024/01/28 01:00:07;;;;;;;22.00;9.55;;;1.50;99.90;;;;;;5028497;28;20040;-65
2024/01/28 01:02:32;;;;;;;26.42;10.63;;;1.50;99.90;;;;;;5009571;28;20041;-64
2024/01/28 01:04:58;;;;;;;16.33;9.13;;;1.50;99.90;;;;;;5039766;28;20034;-65
2024/01/28 01:07:28;;;;;;;26.52;10.65;;;1.60;99.90;;;;;;5030531;28;20029;-64
2024/01/28 01:09:54;;;;;;;21.40;10.32;;;1.60;99.90;;;;;;5027550;28;20120;-64
2024/01/28 01:12:19;;;;;;;23.00;10.70;;;1.50;99.90;;;;;;5029456;28;20104;-65
2024/01/28 01:14:45;;;;;;;23.20;10.13;;;1.50;99.90;;;;;;5028808;28;20041;-66
2024/01/28 01:17:11;;;;;;;16.83;10.03;;;1.50;99.90;;;;;;5029720;28;20041;-64
2024/01/28 01:19:36;;;;;;;20.40;11.40;;;1.50;99.90;;;;;;5030173;28;20041;-65
2024/01/28 01:22:02;;;;;;;23.43;11.03;;;1.50;99.90;;;;;;5029395;28;20410;-65
2024/01/28 01:24:29;;;;;;;29.52;12.18;;;1.50;99.90;;;;;;5028747;28;20045;-64
2024/01/28 01:26:54;;;;;;;22.38;10.35;;;1.50;99.90;;;;;;5029139;28;20506;-64
2024/01/28 01:29:20;;;;;;;25.73;10.63;;;1.50;99.90;;;;;;5030127;28;20084;-63
2024/01/28 01:31:47;;;;;;;18.93;10.50;;;1.50;99.90;;;;;;5029566;28;20054;-65
2024/01/28 01:34:12;;;;;;;18.63;10.82;;;1.50;99.90;;;;;;5039080;28;20068;-66
2024/01/28 01:36:42;;;;;;;30.07;11.83;;;1.60;99.90;;;;;;5029194;28;20157;-65
2024/01/28 01:39:08;;;;;;;21.48;10.70;;;1.60;99.90;;;;;;5029822;28;20068;-66
2024/01/28 01:41:33;;;;;;;26.83;12.20;;;1.60;99.90;;;;;;5029325;28;20073;-65
2024/01/28 01:44:00;;;;;;;27.40;11.53;;;1.60;99.90;;;;;;5028861;28;20488;-64
2024/01/28 01:46:26;;;;;;;25.98;11.40;;;1.70;99.90;;;;;;5028826;28;20083;-64
2024/01/28 01:48:52;;;;;;;30.70;13.38;;;1.70;99.90;;;;;;5038086;28;20045;-64
2024/01/28 01:51:18;;;;;;;26.10;11.05;;;1.70;99.90;;;;;;5028932;28;20402;-64
2024/01/28 01:53:44;;;;;;;22.63;10.88;;;1.70;99.90;;;;;;5027771;28;20036;-64
2024/01/28 01:56:11;;;;;;;18.27;11.73;;;1.70;99.90;;;;;;5028893;28;20065;-64
2024/01/28 01:58:37;;;;;;;28.27;10.73;;;1.70;99.90;;;;;;5028590;28;20431;-66
2024/01/28 02:01:04;;;;;;;23.50;12.00;;;1.70;99.90;;;;;;5028741;28;20269;-64
2024/01/28 02:03:29;;;;;;;;;;;1.70;99.90;;;;;;5028711;28;20049;-64
2024/01/28 02:05:55;;;;;;;28.25;12.23;;;1.70;99.90;;;;;;5028502;28;19966;-64
2024/01/28 02:08:20;;;;;;;27.80;12.97;;;1.70;99.90;;;;;;5028192;28;20037;-64
2024/01/28 02:10:46;;;;;;;27.30;11.47;;;1.60;99.90;;;;;;5029786;28;20049;-63
2024/01/28 02:13:12;;;;;;;27.73;12.20;;;1.60;99.90;;;;;;5029348;28;20037;-64
2024/01/28 02:15:38;;;;;;;31.08;12.93;;;1.70;99.90;;;;;;5028209;28;20041;-64
2024/01/28 02:18:05;;;;;;;25.30;13.57;;;1.60;99.90;;;;;;5012203;28;20080;-64
2024/01/28 02:20:30;;;;;;;29.50;14.60;;;1.70;99.90;;;;;;5027377;28;20057;-64
2024/01/28 02:22:56;;;;;;;37.90;13.10;;;1.70;99.90;;;;;;5010593;28;20041;-65
2024/01/28 02:25:22;;;;;;;23.20;12.27;;;1.60;99.90;;;;;;5028859;28;20046;-64
2024/01/28 02:27:48;;;;;;;21.27;11.50;;;1.60;99.90;;;;;;5011455;28;20117;-64
2024/01/28 02:30:14;;;;;;;27.40;13.53;;;1.60;99.90;;;;;;5028913;28;20124;-64
2024/01/28 02:32:50;;;;;;;35.55;13.40;;;1.50;99.90;;;;;;5028124;28;20037;-64
2024/01/28 02:35:17;;;;;;;32.55;12.60;;;1.50;99.90;;;;;;5027065;28;20041;-64
2024/01/28 02:37:42;;;;;;;29.65;13.73;;;1.50;99.90;;;;;;5029133;28;20538;-64
2024/01/28 02:40:09;;;;;;;27.53;13.03;;;1.40;99.90;;;;;;5027420;28;20033;-64
2024/01/28 02:42:35;;;;;;;28.60;12.43;;;1.40;99.90;;;;;;5026774;28;20044;-65
2024/01/28 02:45:00;;;;;;;22.38;11.98;;;1.50;99.90;;;;;;5009630;28;20417;-64
2024/01/28 02:47:26;;;;;;;23.00;11.02;;;1.50;99.90;;;;;;5028351;28;20029;-64
2024/01/28 02:49:52;;;;;;;25.90;13.13;;;1.50;99.90;;;;;;5032942;28;20421;-64
2024/01/28 02:52:17;;;;;;;22.80;12.03;;;1.60;99.90;;;;;;5014697;28;20033;-63
2024/01/28 02:54:43;;;;;;;26.67;13.00;;;1.50;99.90;;;;;;5028241;28;20037;-64
2024/01/28 02:57:09;;;;;;;21.65;11.88;;;1.50;99.90;;;;;;5043414;28;20037;-64
2024/01/28 02:59:34;;;;;;;22.30;12.80;;;1.50;99.90;;;;;;5026710;28;20522;-64
2024/01/28 03:02:00;;;;;;;21.13;13.37;;;1.40;99.90;;;;;;5027832;28;20045;-65
2024/01/28 03:04:26;;;;;;;25.13;11.50;;;1.40;99.90;;;;;;5027206;28;20039;-64
2024/01/28 03:06:51;;;;;;;24.10;12.73;;;1.30;99.90;;;;;;5028473;28;20064;-64
2024/01/28 03:09:18;;;;;;;23.80;11.70;;;1.30;99.90;;;;;;5027411;28;20037;-65
2024/01/28 03:11:44;;;;;;;29.02;13.60;;;1.30;99.90;;;;;;5026024;28;20298;-64
2024/01/28 03:14:10;;;;;;;22.30;11.82;;;1.20;99.90;;;;;;5027355;28;20521;-65
2024/01/28 03:16:36;;;;;;;35.78;13.32;;;1.20;99.90;;;;;;5027425;28;20412;-64
2024/01/28 03:19:02;;;;;;;26.45;12.65;;;1.20;99.90;;;;;;5027091;28;20039;-64
2024/01/28 03:21:28;;;;;;;27.70;13.98;;;1.20;99.90;;;;;;5027772;28;20048;-64
2024/01/28 03:23:54;;;;;;;25.13;12.68;;;1.20;99.90;;;;;;5029645;28;20077;-64
2024/01/28 03:26:20;;;;;;;29.08;13.90;;;1.20;99.90;;;;;;5028907;28;20080;-64
2024/01/28 03:28:45;;;;;;;29.30;14.37;;;1.20;99.90;;;;;;5027519;28;20119;-64
2024/01/28 03:31:11;;;;;;;26.27;12.90;;;1.20;99.90;;;;;;5028815;28;20061;-65
2024/01/28 03:33:37;;;;;;;22.67;13.57;;;1.20;99.90;;;;;;5029278;28;20271;-64
2024/01/28 03:36:02;;;;;;;20.10;11.40;;;1.20;99.90;;;;;;5043209;28;20044;-64
2024/01/28 03:38:28;;;;;;;21.05;12.40;;;1.20;99.90;;;;;;5031630;28;20441;-64
2024/01/28 03:40:54;;;;;;;28.70;12.40;;;1.20;99.90;;;;;;5030790;28;20034;-66
2024/01/28 03:43:19;;;;;;;23.70;12.47;;;1.10;99.90;;;;;;5030792;28;20053;-64
2024/01/28 03:45:45;;;;;;;26.07;12.83;;;1.10;99.90;;;;;;5031154;28;20045;-64
2024/01/28 03:48:10;;;;;;;22.13;12.60;;;1.10;99.90;;;;;;5030864;28;20041;-64
2024/01/28 03:50:36;;;;;;;27.07;13.93;;;1.10;99.90;;;;;;5033362;28;20884;-64
2024/01/28 03:53:02;;;;;;;28.40;13.50;;;1.10;99.90;;;;;;5033437;28;20041;-65
2024/01/28 03:55:27;;;;;;;26.70;14.40;;;1.00;99.90;;;;;;5016089;28;20037;-65
2024/01/28 03:57:53;;;;;;;25.50;13.40;;;1.00;99.90;;;;;;5044037;28;20341;-65
2024/01/28 04:00:19;;;;;;;29.63;14.30;;;1.00;99.90;;;;;;5031066;28;20052;-65
2024/01/28 04:02:45;;;;;;;25.63;11.75;;;1.00;99.90;;;;;;5031859;28;20040;-65
2024/01/28 04:05:10;;;;;;;27.52;14.23;;;1.00;99.90;;;;;;5030442;28;20041;-65
2024/01/28 04:07:36;;;;;;;26.73;11.30;;;1.00;99.90;;;;;;5029731;28;20029;-65
2024/01/28 04:10:02;;;;;;;26.50;13.87;;;1.10;99.90;;;;;;5019864;28;20048;-65
2024/01/28 04:12:28;;;;;;;32.85;12.85;;;1.00;99.90;;;;;;5013599;28;20049;-65
2024/01/28 04:14:54;;;;;;;24.70;13.48;;;1.00;99.90;;;;;;5030350;28;20654;-65
2024/01/28 04:17:20;;;;;;;26.70;12.13;;;1.00;99.90;;;;;;5030952;28;20517;-65
2024/01/28 04:19:46;;;;;;;21.67;11.75;;;1.00;99.90;;;;;;5033818;28;20041;-65
2024/01/28 04:22:11;;;;;;;37.33;12.57;;;1.10;99.90;;;;;;5013518;28;20048;-65
2024/01/28 04:24:37;;;;;;;29.60;11.63;;;1.10;99.90;;;;;;5030482;28;20049;-65
2024/01/28 04:27:03;;;;;;;24.92;11.80;;;1.00;99.90;;;;;;5031765;28;20052;-65
2024/01/28 04:29:29;;;;;;;25.58;11.90;;;1.00;99.90;;;;;;5034794;28;20342;-66
2024/01/28 04:31:55;;;;;;;23.52;11.18;;;1.00;99.90;;;;;;5034362;28;20478;-64
2024/01/28 04:34:21;;;;;;;25.67;13.13;;;1.00;99.90;;;;;;5032874;28;20050;-64
2024/01/28 04:36:47;;;;;;;30.05;10.70;;;0.90;99.90;;;;;;5029903;28;20513;-65
2024/01/28 04:39:13;;;;;;;28.97;11.73;;;0.90;99.90;;;;;;5030100;28;20041;-65
2024/01/28 04:41:39;;;;;;;27.83;12.30;;;0.80;99.90;;;;;;5030231;28;20119;-65
2024/01/28 04:44:05;;;;;;;25.55;13.18;;;0.80;99.90;;;;;;5029957;28;20493;-65
2024/01/28 04:46:31;;;;;;;26.73;11.13;;;0.80;99.90;;;;;;5030339;28;20041;-65
2024/01/28 04:48:57;;;;;;;20.73;11.67;;;0.80;99.90;;;;;;5030439;28;20448;-64
2024/01/28 04:51:22;;;;;;;32.13;13.68;;;0.70;99.90;;;;;;5033846;28;20352;-64
2024/01/28 04:53:48;;;;;;;21.37;11.07;;;0.70;99.90;;;;;;5030155;28;20472;-65
2024/01/28 04:56:13;;;;;;;28.00;12.47;;;0.70;99.90;;;;;;5031152;28;20044;-64
2024/01/28 04:58:39;;;;;;;25.10;12.30;;;0.60;99.90;;;;;;5033138;28;20111;-64
2024/01/28 05:01:05;;;;;;;25.17;11.57;;;0.60;99.90;;;;;;5030540;28;20033;-64
2024/01/28 05:03:31;;;;;;;28.27;12.85;;;0.60;99.90;;;;;;5029946;28;20060;-64
2024/01/28 05:05:57;;;;;;;30.20;14.13;;;0.60;99.90;;;;;;5029842;28;20159;-63
2024/01/28 05:08:23;;;;;;;;;;;0.50;99.90;;;;;;5030488;28;20029;-64
2024/01/28 05:10:48;;;;;;;21.73;13.75;;;0.50;99.90;;;;;;5028954;28;19917;-64
2024/01/28 05:13:14;;;;;;;26.07;13.87;;;0.50;99.90;;;;;;5031290;28;20052;-64
2024/01/28 05:15:40;;;;;;;33.72;13.48;;;0.50;99.90;;;;;;5029352;28;20398;-64
2024/01/28 05:18:06;;;;;;;26.90;13.48;;;0.60;99.90;;;;;;5030146;28;20060;-64
2024/01/28 05:20:32;;;;;;;22.63;13.70;;;0.50;99.90;;;;;;5029454;28;20520;-64
2024/01/28 05:22:59;;;;;;;23.02;13.18;;;0.50;99.90;;;;;;5029924;28;20326;-64
2024/01/28 05:25:26;;;;;;;32.33;15.13;;;0.50;99.90;;;;;;5028946;28;20056;-64
2024/01/28 05:27:52;;;;;;;28.15;13.32;;;0.40;99.90;;;;;;5028639;28;20040;-64
2024/01/28 05:30:17;;;;;;;40.40;14.03;;;0.40;99.90;;;;;;5034390;28;20116;-64
2024/01/28 05:32:43;;;;;;;26.83;15.40;;;0.40;99.90;;;;;;5036901;28;20033;-64
2024/01/28 05:35:09;;;;;;;30.47;14.70;;;0.40;99.90;;;;;;5031047;28;20033;-64
2024/01/28 05:37:36;;;;;;;26.30;13.68;;;0.40;99.90;;;;;;5028999;28;20116;-64
2024/01/28 05:40:03;;;;;;;27.95;14.90;;;0.40;99.90;;;;;;5028380;28;21514;-65
2024/01/28 05:42:29;;;;;;;35.58;15.38;;;0.40;99.90;;;;;;5028818;28;20037;-64
2024/01/28 05:44:54;;;;;;;31.33;16.30;;;0.40;99.90;;;;;;5028840;28;20506;-64
2024/01/28 05:47:20;;;;;;;26.83;15.23;;;0.40;99.90;;;;;;5024096;28;20421;-64
2024/01/28 05:49:46;;;;;;;35.10;15.47;;;0.40;99.90;;;;;;5029656;28;20042;-64
2024/01/28 05:52:12;;;;;;;40.42;15.77;;;0.40;99.90;;;;;;5029114;28;20494;-64
2024/01/28 05:54:41;;;;;;;32.73;14.90;;;0.40;99.90;;;;;;5028883;28;20048;-64
2024/01/28 05:57:08;;;;;;;33.03;16.67;;;0.40;99.90;;;;;;5029598;28;20136;-64
2024/01/28 05:59:34;;;;;;;32.35;13.38;;;0.40;99.90;;;;;;5029074;28;20478;-64
2024/01/28 06:01:59;;;;;;;32.58;14.25;;;0.30;99.90;;;;;;5029356;28;20044;-64
2024/01/28 06:04:25;;;;;;;30.73;14.30;;;0.40;99.90;;;;;;5028782;28;20025;-64
2024/01/28 06:06:50;;;;;;;28.50;14.07;;;0.30;99.90;;;;;;5027947;28;20135;-65
2024/01/28 06:09:16;;;;;;;29.20;15.80;;;0.30;99.90;;;;;;5028287;28;20493;-64
2024/01/28 06:11:43;;;;;;;43.70;15.13;;;0.30;99.90;;;;;;5028471;28;20029;-64
2024/01/28 06:14:11;;;;;;;26.05;13.63;;;0.30;99.90;;;;;;5028088;28;20132;-64
2024/01/28 06:16:36;;;;;;;34.88;15.65;;;0.30;99.90;;;;;;5028588;28;20397;-64
2024/01/28 06:19:02;;;;;;;27.73;14.85;;;0.30;99.90;;;;;;5010534;28;20041;-64
2024/01/28 06:21:28;;;;;;;25.63;14.00;;;0.40;99.90;;;;;;5028090;28;20033;-64
2024/01/28 06:23:54;;;;;;;28.83;15.82;;;0.30;99.90;;;;;;5027703;28;20056;-64
2024/01/28 06:26:20;;;;;;;24.25;14.45;;;0.30;99.90;;;;;;5028033;28;20080;-64
2024/01/28 06:28:46;;;;;;;31.13;15.27;;;0.30;99.90;;;;;;5028056;28;20037;-64
2024/01/28 06:31:13;;;;;;;30.33;14.77;;;0.30;99.90;;;;;;5029140;28;20108;-64
2024/01/28 06:33:39;;;;;;;31.45;15.38;;;0.20;99.90;;;;;;5027593;28;21158;-64
2024/01/28 06:36:06;;;;;;;31.02;14.45;;;0.20;99.90;;;;;;5027941;28;20040;-64
2024/01/28 06:38:31;;;;;;;29.15;13.77;;;0.20;99.90;;;;;;5027568;28;20083;-65
2024/01/28 06:41:00;;;;;;;33.47;16.17;;;0.10;99.90;;;;;;5028391;28;20456;-63
2024/01/28 06:43:25;;;;;;;35.40;14.05;;;0.10;99.90;;;;;;5028508;28;20037;-64
2024/01/28 06:45:52;;;;;;;28.40;14.70;;;0.10;99.90;;;;;;5027129;28;20047;-64
2024/01/28 06:48:17;;;;;;;29.60;16.38;;;0.00;99.90;;;;;;5028237;28;20520;-65
2024/01/28 06:50:44;;;;;;;24.37;14.47;;;0.10;99.90;;;;;;5010014;28;20090;-65
2024/01/28 06:53:10;;;;;;;28.58;14.65;;;0.00;99.90;;;;;;5026898;28;20188;-65
2024/01/28 06:55:36;;;;;;;42.57;16.27;;;0.00;99.90;;;;;;5027203;28;20561;-64
2024/01/28 06:58:01;;;;;;;27.57;14.87;;;0.00;99.90;;;;;;5034653;28;20268;-64
2024/01/28 07:00:27;;;;;;;28.58;14.45;;;0.00;99.90;;;;;;5033124;28;20335;-64
2024/01/28 07:02:56;;;;;;;23.55;14.75;;;-0.10;99.90;;;;;;5028553;28;20470;-64
2024/01/28 07:05:22;;;;;;;29.10;13.75;;;-0.10;99.90;;;;;;5027833;28;20049;-64
2024/01/28 07:07:48;;;;;;;23.58;13.85;;;-0.10;99.90;;;;;;5026984;28;20583;-64
2024/01/28 07:10:15;;;;;;;27.75;14.00;;;-0.10;99.90;;;;;;5007026;28;20085;-65
2024/01/28 07:12:42;;;;;;;27.35;13.80;;;0.00;99.90;;;;;;5027021;28;20025;-64
2024/01/28 07:15:08;;;;;;;35.53;14.13;;;0.00;99.90;;;;;;5028046;28;20034;-64
2024/01/28 07:17:34;;;;;;;29.05;14.85;;;-0.10;99.90;;;;;;5027603;28;20263;-65
2024/01/28 07:19:59;;;;;;;27.03;14.60;;;-0.10;99.90;;;;;;5027403;28;20506;-64
2024/01/28 07:22:25;;;;;;;28.63;14.07;;;0.00;99.90;;;;;;5027366;28;20037;-64
2024/01/28 07:24:50;;;;;;;22.47;13.30;;;0.00;99.90;;;;;;5027687;28;20275;-64
2024/01/28 07:27:16;;;;;;;23.20;13.10;;;0.00;99.90;;;;;;5027476;28;20172;-64
2024/01/28 07:29:43;;;;;;;25.47;13.43;;;0.00;99.90;;;;;;5029145;28;20785;-65
2024/01/28 07:32:13;;;;;;;18.90;13.45;;;0.10;99.90;;;;;;5027420;28;20124;-64
2024/01/28 07:34:42;;;;;;;24.73;13.90;;;0.10;99.90;;;;;;5027429;28;20042;-65
2024/01/28 07:37:07;;;;;;;21.15;11.73;;;0.30;99.90;;;;;;5027460;28;20050;-65
2024/01/28 07:39:33;;;;;;;21.63;11.05;;;0.40;99.90;;;;;;5025542;28;20037;-65
2024/01/28 07:41:59;;;;;;;17.70;11.00;;;0.50;99.90;;;;;;5030378;28;20041;-65
2024/01/28 07:44:27;;;;;;;25.50;11.27;;;0.80;99.90;;;;;;5026050;28;20502;-64
2024/01/28 07:46:53;;;;;;;23.35;9.23;;;1.20;99.90;;;;;;5026119;28;20477;-65
2024/01/28 07:49:19;;;;;;;18.13;8.38;;;1.50;99.90;;;;;;5027942;28;20037;-65
2024/01/28 07:51:45;;;;;;;17.58;8.85;;;1.90;99.90;;;;;;5025555;28;20091;-65
2024/01/28 07:54:11;;;;;;;17.80;7.82;;;2.40;99.90;;;;;;5025771;28;20440;-66
2024/01/28 07:56:37;;;;;;;11.90;7.70;;;2.80;99.90;;;;;;5023435;28;20046;-65
2024/01/28 07:59:03;;;;;;;18.73;7.70;;;3.10;99.90;;;;;;5007451;28;20155;-64
2024/01/28 08:01:30;;;;;;;14.30;7.53;;;3.60;99.90;;;;;;5027359;28;20428;-64
2024/01/28 08:03:56;;;;;;;15.73;7.25;;;4.00;99.90;;;;;;5026451;28;20049;-65
2024/01/28 08:06:22;;;;;;;13.45;6.45;;;4.30;99.90;;;;;;5008589;28;20045;-64
2024/01/28 08:08:48;;;;;;;11.57;6.05;;;4.50;99.90;;;;;;5026923;28;20037;-64
2024/01/28 08:11:14;;;;;;;19.08;7.35;;;4.50;99.90;;;;;;5026900;28;20382;-65
2024/01/28 08:13:40;;;;;;;13.97;6.77;;;4.20;99.90;;;;;;4991492;28;20337;-64
2024/01/28 08:16:06;;;;;;;;;;;3.80;99.90;;;;;;5008199;28;20103;-65
2024/01/28 08:18:32;;;;;;;13.52;7.55;;;3.50;99.90;;;;;;5008440;28;19917;-65
2024/01/28 08:20:58;;;;;;;12.43;6.77;;;3.50;99.90;;;;;;5030270;28;20869;-66
2024/01/28 08:23:23;;;;;;;14.23;6.60;;;3.90;99.90;;;;;;5030253;28;20040;-65
2024/01/28 08:25:49;;;;;;;11.95;7.05;;;4.50;99.90;;;;;;5029442;28;20099;-65
2024/01/28 08:28:15;;;;;;;10.40;6.47;;;5.30;99.90;;;;;;5029987;28;20029;-65
2024/01/28 08:30:40;;;;;;;14.67;6.47;;;6.10;99.90;;;;;;5029571;28;20168;-65
2024/01/28 08:33:06;;;;;;;8.47;5.23;;;6.80;99.90;;;;;;5011238;28;20456;-64
2024/01/28 08:35:31;;;;;;;8.73;5.17;;;7.50;99.90;;;;;;5026578;28;20041;-63
2024/01/28 08:37:57;;;;;;;14.77;5.53;;;8.20;99.90;;;;;;5028472;28;20513;-63
2024/01/28 08:40:24;;;;;;;8.18;4.85;;;8.90;99.90;;;;;;5026642;28;20043;-63
2024/01/28 08:42:51;;;;;;;10.00;4.75;;;9.50;99.90;;;;;;5009595;28;20077;-62
2024/01/28 08:45:16;;;;;;;11.73;4.45;;;10.10;99.90;;;;;;5028690;28;20501;-62
2024/01/28 08:47:42;;;;;;;12.43;5.35;;;10.70;99.90;;;;;;5027980;28;21215;-62
2024/01/28 08:50:09;;;;;;;13.30;5.85;;;11.10;99.90;;;;;;5028236;28;20060;-63
2024/01/28 08:52:35;;;;;;;10.73;4.97;;;11.30;99.90;;;;;;5028633;28;20048;-63
2024/01/28 08:55:00;;;;;;;11.27;5.45;;;11.30;97.80;;;;;;5028523;28;20033;-63
2024/01/28 08:57:26;;;;;;;9.55;4.47;;;11.20;97.30;;;;;;5029613;28;20045;-62
2024/01/28 08:59:52;;;;;;;12.30;4.80;;;10.90;96.50;;;;;;5029463;28;20045;-63
2024/01/28 09:02:18;;;;;;;9.88;4.75;;;10.70;96.50;;;;;;5029787;28;20276;-63
2024/01/28 09:04:43;;;;;;;10.95;4.90;;;10.80;96.10;;;;;;5028847;28;20574;-63
2024/01/28 09:07:09;;;;;;;14.05;4.97;;;10.70;95.90;;;;;;5029987;28;20042;-63
2024/01/28 09:09:34;;;;;;;11.88;4.60;;;10.80;96.50;;;;;;5028555;28;20033;-64
2024/01/28 09:12:00;;;;;;;11.13;5.20;;;10.70;95.80;;;;;;5010329;28;20034;-63
2024/01/28 09:14:26;;;;;;;8.97;4.40;;;10.80;95.50;;;;;;5029285;28;20094;-64
2024/01/28 09:16:52;;;;;;;;;;;10.90;95.30;;;;;;5027312;28;20292;-63
2024/01/28 09:19:18;;;;;;;8.35;4.93;;;11.00;94.30;;;;;;5011367;28;20016;-64
2024/01/28 09:21:43;;;;;;;13.60;5.72;;;10.80;94.20;;;;;;5027407;28;20037;-63
2024/01/28 09:24:09;;;;;;;18.07;4.17;;;10.50;93.20;;;;;;5026189;28;20099;-64
2024/01/28 09:26:35;;;;;;;9.53;4.97;;;10.20;93.70;;;;;;5028800;28;20318;-63
2024/01/28 09:29:00;;;;;;;12.63;5.60;;;9.80;93.40;;;;;;5029052;28;20111;-64
2024/01/28 09:31:26;;;;;;;12.60;5.47;;;9.80;93.70;;;;;;5028223;28;20494;-64
2024/01/28 09:33:52;;;;;;;15.53;6.10;;;9.80;93.20;;;;;;5026609;28;20033;-63
2024/01/28 09:36:17;;;;;;;11.30;4.93;;;9.80;93.00;;;;;;5032201;28;20094;-64
2024/01/28 09:38:43;;;;;;;8.52;5.70;;;9.80;93.30;;;;;;5032645;28;20418;-63
2024/01/28 09:41:25;;;;;;;13.53;5.67;;;9.20;93.40;;;;;;5027210;28;20117;-63
2024/01/28 09:43:50;;;;;;;11.30;5.03;;;8.70;94.10;;;;;;5040129;28;20048;-64
2024/01/28 09:46:17;;;;;;;12.83;5.43;;;8.40;94.90;;;;;;5027463;28;20049;-64
2024/01/28 09:48:46;;;;;;;12.75;6.20;;;8.00;95.40;;;;;;5029246;28;20079;-65
2024/01/28 09:51:12;;;;;;;15.88;6.00;;;7.50;96.10;;;;;;5010118;28;20037;-64
2024/01/28 09:53:39;;;;;;;9.85;6.13;;;7.10;96.80;;;;;;5025433;28;20083;-63
2024/01/28 09:56:05;;;;;;;12.68;5.85;;;7.30;98.80;;;;;;5028626;28;20073;-63
2024/01/28 09:58:31;;;;;;;15.52;5.35;;;7.60;99.10;;;;;;5028866;28;20048;-63
2024/01/28 10:00:57;;;;;;;7.35;5.63;;;7.90;99.10;;;;;;5029732;28;20506;-63
2024/01/28 10:03:23;;;;;;;8.88;5.15;;;8.20;98.70;;;;;;5010791;28;20038;-63
2024/01/28 10:05:49;;;;;;;11.13;5.20;;;8.20;98.30;;;;;;5028745;28;20460;-64
2024/01/28 10:08:14;;;;;;;11.07;4.93;;;8.10;97.90;;;;;;5028476;28;20367;-64
2024/01/28 10:10:40;;;;;;;14.10;5.53;;;7.60;97.60;;;;;;5028519;28;20072;-64
2024/01/28 10:13:06;;;;;;;9.63;5.35;;;7.30;98.30;;;;;;5028294;28;20045;-65
2024/01/28 10:15:32;;;;;;;8.27;4.45;;;7.00;99.00;;;;;;5027628;28;20045;-63
2024/01/28 10:17:58;;;;;;;10.23;4.15;;;7.00;99.90;;;;;;5028223;28;20029;-64
2024/01/28 10:20:26;;;;;;;13.73;4.40;;;7.30;99.90;;;;;;5027129;28;20405;-66
2024/01/28 10:22:53;;;;;;;12.10;5.25;;;7.50;99.90;;;;;;5028032;28;20037;-66
2024/01/28 10:25:19;;;;;;;11.77;5.03;;;7.70;99.90;;;;;;5027386;28;20048;-65
2024/01/28 10:27:46;;;;;;;8.75;4.97;;;7.50;99.70;;;;;;5026510;28;20037;-66
2024/01/28 10:30:13;;;;;;;10.65;4.55;;;7.30;99.80;;;;;;5026053;28;20029;-65
2024/01/28 10:32:39;;;;;;;8.60;4.38;;;7.20;99.90;;;;;;5026312;28;20152;-65
2024/01/28 10:35:09;;;;;;;10.57;4.68;;;7.10;99.90;;;;;;5025501;28;20141;-65
2024/01/28 10:37:35;;;;;;;8.02;4.72;;;7.00;99.90;;;;;;5027718;28;20489;-65
2024/01/28 10:40:07;;;;;;;7.72;4.18;;;6.90;99.90;;;;;;5025384;28;20053;-64
2024/01/28 10:42:39;;;;;;;10.60;5.53;;;6.80;99.90;;;;;;5006280;28;20045;-65
2024/01/28 10:45:19;;;;;;;7.07;3.75;;;6.80;99.90;;;;;;5024151;28;20402;-65
2024/01/28 10:47:51;;;;;;;8.32;3.92;;;6.80;99.90;;;;;;5007997;28;20049;-68
2024/01/28 10:50:20;;;;;;;7.97;4.28;;;6.90;99.90;;;;;;5026990;28;20030;-65
2024/01/28 10:52:47;;;;;;;8.15;4.85;;;7.00;99.90;;;;;;5026330;28;20473;-66
2024/01/28 10:55:15;;;;;;;6.80;4.53;;;7.00;99.90;;;;;;5026499;28;20787;-65
2024/01/28 10:57:42;;;;;;;11.88;4.55;;;7.20;99.90;;;;;;5026751;28;20030;-65
2024/01/28 11:00:10;;;;;;;5.72;3.97;;;7.30;99.90;;;;;;5026862;28;20415;-65
2024/01/28 11:02:39;;;;;;;11.10;4.32;;;7.40;99.90;;;;;;5027212;28;20037;-65
2024/01/28 11:05:05;;;;;;;6.75;3.65;;;7.50;99.90;;;;;;5009419;28;20494;-65
2024/01/28 11:07:31;;;;;;;;;;;7.60;99.90;;;;;;5028179;28;20037;-65
2024/01/28 11:10:00;;;;;;;8.20;4.07;;;7.70;99.90;;;;;;5027555;28;20251;-65
2024/01/28 11:12:28;;;;;;;9.65;3.58;;;7.80;99.90;;;;;;5009673;28;20099;-65
2024/01/28 11:14:57;;;;;;;11.23;4.00;;;7.90;99.90;;;;;;5026770;28;20564;-65
2024/01/28 11:17:32;;;;;;;7.50;3.42;;;8.00;99.90;;;;;;5009883;28;20116;-65
2024/01/28 11:20:08;;;;;;;7.60;3.92;;;8.00;99.10;;;;;;5026756;28;20425;-65
2024/01/28 11:22:54;;;;;;;10.33;3.47;;;8.10;99.70;;;;;;5030025;28;20404;-65
2024/01/28 11:25:24;;;;;;;8.20;3.85;;;8.30;99.60;;;;;;5025995;28;20284;-65
2024/01/28 11:28:01;;;;;;;8.18;3.65;;;8.30;99.00;;;;;;5028284;28;20046;-65
2024/01/28 11:30:27;;;;;;;;;;;8.50;99.00;;;;;;5027849;28;20042;-65
2024/01/28 11:33:12;;;;;;;6.20;2.97;;;8.50;98.10;;;;;;5028417;28;20408;-65
2024/01/28 11:35:39;;;;;;;8.07;3.10;;;8.60;98.30;;;;;;5022973;28;20099;-65
2024/01/28 11:38:06;;;;;;;8.65;3.55;;;8.80;98.50;;;;;;5026523;28;20056;-64
2024/01/28 11:40:39;;;;;;;5.90;3.25;;;8.70;97.90;;;;;;5026756;28;20039;-66
2024/01/28 11:43:06;;;;;;;7.43;3.10;;;9.00;98.10;;;;;;5027315;28;20103;-65
2024/01/28 11:45:32;;;;;;;8.18;3.38;;;9.10;98.10;;;;;;5026172;28;20116;-65
2024/01/28 11:48:04;;;;;;;8.68;2.88;;;9.40;98.00;;;;;;5028522;28;20044;-65
2024/01/28 11:50:30;;;;;;;6.53;3.13;;;9.70;97.60;;;;;;5028567;28;20047;-65
2024/01/28 11:52:55;;;;;;;4.43;2.40;;;10.00;97.30;;;;;;5025686;28;20031;-66
2024/01/28 11:55:21;;;;;;;4.30;2.20;;;10.10;96.60;;;;;;5031556;28;20071;-66
2024/01/28 11:57:48;;;;;;;4.63;2.37;;;10.10;95.70;;;;;;5030764;28;20520;-65
2024/01/28 12:00:15;;;;;;;5.82;2.70;;;9.90;95.40;;;;;;5030519;28;20088;-65
2024/01/28 12:02:41;;;;;;;4.53;2.30;;;9.90;95.10;;;;;;5031239;28;20048;-65
2024/01/28 12:05:08;;;;;;;5.57;2.53;;;9.90;95.00;;;;;;5031605;28;20417;-66
2024/01/28 12:07:35;;;;;;;5.55;2.20;;;10.20;95.70;;;;;;5030716;28;20056;-66
2024/01/28 12:10:02;;;;;;;4.15;1.98;;;10.60;96.00;;;;;;5030950;28;20073;-66
2024/01/28 12:12:29;;;;;;;5.57;2.38;;;10.90;95.50;;;;;;5012755;28;20060;-64
2024/01/28 12:14:58;;;;;;;5.45;2.03;;;10.90;94.80;;;;;;5029969;28;20037;-67
2024/01/28 12:17:24;;;;;;;5.03;2.40;;;10.80;95.30;;;;;;5029201;28;20098;-67
2024/01/28 12:19:52;;;;;;;9.73;2.33;;;10.60;95.10;;;;;;5029955;28;20124;-73
2024/01/28 12:22:17;;;;;;;4.03;2.20;;;10.40;95.80;;;;;;5031366;28;20046;-71
2024/01/28 12:24:46;;;;;;;5.40;2.07;;;10.30;96.40;;;;;;5029984;28;20417;-70
2024/01/28 12:27:13;;;;;;;5.10;2.25;;;10.30;96.60;;;;;;5030811;28;20112;-72
2024/01/28 12:29:42;;;;;;;4.43;2.65;;;10.40;96.30;;;;;;5030297;28;20036;-69
2024/01/28 12:32:08;;;;;;;5.57;2.50;;;10.70;96.30;;;;;;5030851;28;20033;-69
2024/01/28 12:34:36;;;;;;;5.63;1.88;;;10.90;94.90;;;;;;5029538;28;20413;-70
2024/01/28 12:37:02;;;;;;;8.43;1.60;;;11.20;94.60;;;;;;5030350;28;20033;-71
2024/01/28 12:39:27;;;;;;;2.90;1.52;;;11.50;94.70;;;;;;5019819;28;20123;-70